sensor_id;sensor_type;location;lat;lon;timestamp;pressure;altitude;pressure_sealevel;temperature;humidity
29315;BME280;16320;53.954;9.506;2024-01-06T00:01:31;100322.16;;;0.09;100.00
29315;BME280;16320;53.954;9.506;2024-01-06T00:03:59;100329.09;;;0.07;100.00
29315;BME280;16320;53.954;9.506;2024-01-06T00:06:28;100330.84;;;0.05;100.00
29315;BME280;16320;53.954;9.506;2024-01-06T00:08:57;100329.94;;;0.08;100.00
29315;BME280;16320;53.954;9.506;2024-01-06T00:11:27;100333.44;;;0.05;100.00
29315;BME280;16320;53.954;9.506;2024-01-06T00:13:55;100334.25;;;0.07;100.00
29315;BME280;16320;53.954;9.506;2024-01-06T00:16:23;100342.91;;;0.03;100.00
29315;BME280;16320;53.954;9.506;2024-01-06T00:18:55;100342.06;;;0.04;100.00
29315;BME280;16320;53.954;9.506;2024-01-06T00:21:25;100351.50;;;0.05;100.00
29315;BME280;16320;53.954;9.506;2024-01-06T00:23:54;100356.72;;;0.02;100.00
29315;BME280;16320;53.954;9.506;2024-01-06T00:26:23;100348.94;;;0.04;100.00
29315;BME280;16320;53.954;9.506;2024-01-06T00:28:52;100340.28;;;0.06;100.00
29315;BME280;16320;53.954;9.506;2024-01-06T00:31:21;100353.19;;;0.06;100.00
29315;BME280;16320;53.954;9.506;2024-01-06T00:33:49;100361.72;;;0.11;100.00
29315;BME280;16320;53.954;9.506;2024-01-06T00:36:17;100363.44;;;0.14;100.00
29315;BME280;16320;53.954;9.506;2024-01-06T00:38:47;100366.91;;;0.11;100.00
29315;BME280;16320;53.954;9.506;2024-01-06T00:41:15;100368.69;;;0.06;100.00
29315;BME280;16320;53.954;9.506;2024-01-06T00:43:43;100371.22;;;0.11;100.00
29315;BME280;16320;53.954;9.506;2024-01-06T00:46:11;100369.59;;;0.05;100.00
29315;BME280;16320;53.954;9.506;2024-01-06T00:48:39;100369.59;;;0.05;100.00
29315;BME280;16320;53.954;9.506;2024-01-06T00:51:08;100369.53;;;0.10;100.00
29315;BME280;16320;53.954;9.506;2024-01-06T00:53:38;100371.25;;;0.09;100.00
29315;BME280;16320;53.954;9.506;2024-01-06T00:56:06;100377.19;;;0.13;100.00
29315;BME280;16320;53.954;9.506;2024-01-06T00:58:34;100372.06;;;0.11;100.00
29315;BME280;16320;53.954;9.506;2024-01-06T01:01:02;100379.75;;;0.16;100.00
29315;BME280;16320;53.954;9.506;2024-01-06T01:03:30;100374.56;;;0.17;100.00
29315;BME280;16320;53.954;9.506;2024-01-06T01:05:58;100372.91;;;0.13;100.00
29315;BME280;16320;53.954;9.506;2024-01-06T01:08:29;100371.94;;;0.21;100.00
29315;BME280;16320;53.954;9.506;2024-01-06T01:10:58;100380.59;;;0.18;100.00
29315;BME280;16320;53.954;9.506;2024-01-06T01:13:27;100372.88;;;0.16;100.00
29315;BME280;16320;53.954;9.506;2024-01-06T01:15:55;100373.78;;;0.12;100.00
29315;BME280;16320;53.954;9.506;2024-01-06T01:18:24;100382.34;;;0.14;100.00
29315;BME280;16320;53.954;9.506;2024-01-06T01:20:52;100390.06;;;0.17;100.00
29315;BME280;16320;53.954;9.506;2024-01-06T01:23:22;100382.31;;;0.17;100.00
29315;BME280;16320;53.954;9.506;2024-01-06T01:25:51;100390.97;;;0.16;100.00
29315;BME280;16320;53.954;9.506;2024-01-06T01:28:20;100403.84;;;0.18;100.00
29315;BME280;16320;53.954;9.506;2024-01-06T01:30:48;100400.34;;;0.21;100.00
29315;BME280;16320;53.954;9.506;2024-01-06T01:33:16;100408.09;;;0.21;100.00
29315;BME280;16320;53.954;9.506;2024-01-06T01:35:44;100404.59;;;0.25;100.00
29315;BME280;16320;53.954;9.506;2024-01-06T01:38:13;100408.09;;;0.21;100.00
29315;BME280;16320;53.954;9.506;2024-01-06T01:40:41;100409.03;;;0.16;100.00
29315;BME280;16320;53.954;9.506;2024-01-06T01:43:19;100416.75;;;0.18;100.00
29315;BME280;16320;53.954;9.506;2024-01-06T01:45:53;100418.47;;;0.17;100.00
29315;BME280;16320;53.954;9.506;2024-01-06T01:48:22;100415.88;;;0.17;100.00
29315;BME280;16320;53.954;9.506;2024-01-06T01:50:53;100422.78;;;0.17;100.00
29315;BME280;16320;53.954;9.506;2024-01-06T01:53:24;100421.94;;;0.16;100.00
29315;BME280;16320;53.954;9.506;2024-01-06T01:55:54;100420.25;;;0.12;100.00
29315;BME280;16320;53.954;9.506;2024-01-06T01:58:22;100422.88;;;0.11;100.00
29315;BME280;16320;53.954;9.506;2024-01-06T02:00:51;100429.78;;;0.09;100.00
29315;BME280;16320;53.954;9.506;2024-01-06T02:03:20;100424.59;;;0.10;100.00
29315;BME280;16320;53.954;9.506;2024-01-06T02:05:51;100433.16;;;0.14;100.00
29315;BME280;16320;53.954;9.506;2024-01-06T02:08:20;100431.47;;;0.11;100.00
29315;BME280;16320;53.954;9.506;2024-01-06T02:10:49;100434.00;;;0.14;100.00
29315;BME280;16320;53.954;9.506;2024-01-06T02:13:17;100432.25;;;0.20;100.00
29315;BME280;16320;53.954;9.506;2024-01-06T02:15:45;100447.75;;;0.20;100.00
29315;BME280;16320;53.954;9.506;2024-01-06T02:18:14;100445.97;;;0.22;100.00
29315;BME280;16320;53.954;9.506;2024-01-06T02:20:43;100447.63;;;0.26;100.00
29315;BME280;16320;53.954;9.506;2024-01-06T02:23:12;100453.72;;;0.23;100.00
29315;BME280;16320;53.954;9.506;2024-01-06T02:25:41;100458.88;;;0.23;100.00
29315;BME280;16320;53.954;9.506;2024-01-06T02:28:09;100463.13;;;0.26;100.00
29315;BME280;16320;53.954;9.506;2024-01-06T02:30:37;100468.34;;;0.23;100.00
29315;BME280;16320;53.954;9.506;2024-01-06T02:33:05;100464.03;;;0.23;100.00
29315;BME280;16320;53.954;9.506;2024-01-06T02:35:35;100462.34;;;0.21;100.00
29315;BME280;16320;53.954;9.506;2024-01-06T02:38:03;100460.59;;;0.21;100.00
29315;BME280;16320;53.954;9.506;2024-01-06T02:40:31;100459.88;;;0.11;100.00
29315;BME280;16320;53.954;9.506;2024-01-06T02:43:00;100459.88;;;0.11;100.00
29315;BME280;16320;53.954;9.506;2024-01-06T02:45:28;100451.19;;;0.18;100.00
29315;BME280;16320;53.954;9.506;2024-01-06T02:47:57;100452.06;;;0.16;100.00
29315;BME280;16320;53.954;9.506;2024-01-06T02:50:26;100461.56;;;0.15;100.00
29315;BME280;16320;53.954;9.506;2024-01-06T02:52:54;100461.53;;;0.17;100.00
29315;BME280;16320;53.954;9.506;2024-01-06T02:55:22;100458.06;;;0.20;100.00
29315;BME280;16320;53.954;9.506;2024-01-06T02:57:50;100470.13;;;0.17;100.00
29315;BME280;16320;53.954;9.506;2024-01-06T03:00:20;100467.53;;;0.19;100.00
29315;BME280;16320;53.954;9.506;2024-01-06T03:02:48;100456.31;;;0.22;100.00
29315;BME280;16320;53.954;9.506;2024-01-06T03:05:17;100462.31;;;0.22;100.00
29315;BME280;16320;53.954;9.506;2024-01-06T03:07:45;100459.72;;;0.24;100.00
29315;BME280;16320;53.954;9.506;2024-01-06T03:10:15;100462.25;;;0.27;100.00
29315;BME280;16320;53.954;9.506;2024-01-06T03:12:43;100460.56;;;0.24;100.00
29315;BME280;16320;53.954;9.506;2024-01-06T03:15:11;100474.38;;;0.23;100.00
29315;BME280;16320;53.954;9.506;2024-01-06T03:17:41;100462.31;;;0.24;100.00
29315;BME280;16320;53.954;9.506;2024-01-06T03:20:10;100477.81;;;0.24;100.00
29315;BME280;16320;53.954;9.506;2024-01-06T03:22:39;100476.09;;;0.21;100.00
29315;BME280;16320;53.954;9.506;2024-01-06T03:25:09;100485.59;;;0.21;100.00
29315;BME280;16320;53.954;9.506;2024-01-06T03:27:38;100486.41;;;0.24;100.00
29315;BME280;16320;53.954;9.506;2024-01-06T03:30:08;100481.22;;;0.24;100.00
29315;BME280;16320;53.954;9.506;2024-01-06T03:32:39;100488.97;;;0.26;100.00
29315;BME280;16320;53.954;9.506;2024-01-06T03:35:07;100487.28;;;0.25;100.00
29315;BME280;16320;53.954;9.506;2024-01-06T03:37:35;100497.59;;;0.26;100.00
29315;BME280;16320;53.954;9.506;2024-01-06T03:40:04;100498.41;;;0.30;100.00
29315;BME280;16320;53.954;9.506;2024-01-06T03:42:33;100510.47;;;0.29;100.00
29315;BME280;16320;53.954;9.506;2024-01-06T03:45:01;100505.34;;;0.25;100.00
29315;BME280;16320;53.954;9.506;2024-01-06T03:47:30;100511.34;;;0.27;100.00
29315;BME280;16320;53.954;9.506;2024-01-06T03:49:58;100516.50;;;0.27;100.00
29315;BME280;16320;53.954;9.506;2024-01-06T03:52:26;100508.75;;;0.27;100.00
29315;BME280;16320;53.954;9.506;2024-01-06T03:54:54;100512.19;;;0.27;100.00
29315;BME280;16320;53.954;9.506;2024-01-06T03:57:22;100518.28;;;0.25;100.00
29315;BME280;16320;53.954;9.506;2024-01-06T03:59:50;100518.28;;;0.25;100.00
29315;BME280;16320;53.954;9.506;2024-01-06T04:02:18;100526.81;;;0.30;100.00
29315;BME280;16320;53.954;9.506;2024-01-06T04:04:46;100522.53;;;0.27;100.00
29315;BME280;16320;53.954;9.506;2024-01-06T04:07:15;100532.84;;;0.27;100.00
29315;BME280;16320;53.954;9.506;2024-01-06T04:09:43;100522.50;;;0.30;100.00
29315;BME280;16320;53.954;9.506;2024-01-06T04:12:11;100526.81;;;0.30;100.00
29315;BME280;16320;53.954;9.506;2024-01-06T04:14:40;100526.00;;;0.26;100.00
29315;BME280;16320;53.954;9.506;2024-01-06T04:17:08;100531.13;;;0.29;100.00
29315;BME280;16320;53.954;9.506;2024-01-06T04:19:36;100522.53;;;0.26;100.00
29315;BME280;16320;53.954;9.506;2024-01-06T04:22:04;100531.97;;;0.30;100.00
29315;BME280;16320;53.954;9.506;2024-01-06T04:24:32;100523.34;;;0.31;100.00
29315;BME280;16320;53.954;9.506;2024-01-06T04:27:04;100541.41;;;0.31;100.00
29315;BME280;16320;53.954;9.506;2024-01-06T04:29:32;100540.56;;;0.32;100.00
29315;BME280;16320;53.954;9.506;2024-01-06T04:32:01;100538.91;;;0.28;100.00
29315;BME280;16320;53.954;9.506;2024-01-06T04:34:29;100538.84;;;0.31;100.00
29315;BME280;16320;53.954;9.506;2024-01-06T04:36:57;100545.75;;;0.29;100.00
29315;BME280;16320;53.954;9.506;2024-01-06T04:39:26;100554.41;;;0.28;100.00
29315;BME280;16320;53.954;9.506;2024-01-06T04:41:54;100549.16;;;0.31;100.00
29315;BME280;16320;53.954;9.506;2024-01-06T04:44:22;100562.06;;;0.32;100.00
29315;BME280;16320;53.954;9.506;2024-01-06T04:46:51;100556.25;;;0.16;100.00
29315;BME280;16320;53.954;9.506;2024-01-06T04:49:19;100567.34;;;0.25;100.00
29315;BME280;16320;53.954;9.506;2024-01-06T04:51:48;100578.50;;;0.27;100.00
29315;BME280;16320;53.954;9.506;2024-01-06T04:54:17;100575.91;;;0.28;100.00
29315;BME280;16320;53.954;9.506;2024-01-06T04:56:45;100573.38;;;0.24;100.00
29315;BME280;16320;53.954;9.506;2024-01-06T04:59:16;100587.16;;;0.23;100.00
29315;BME280;16320;53.954;9.506;2024-01-06T05:01:44;100585.41;;;0.28;100.00
29315;BME280;16320;53.954;9.506;2024-01-06T05:04:12;100585.31;;;0.34;100.00
29315;BME280;16320;53.954;9.506;2024-01-06T05:06:40;100590.44;;;0.35;100.00
29315;BME280;16320;53.954;9.506;2024-01-06T05:09:08;100593.91;;;0.36;100.00
29315;BME280;16320;53.954;9.506;2024-01-06T05:11:36;100608.66;;;0.28;100.00
29315;BME280;16320;53.954;9.506;2024-01-06T05:14:04;100612.06;;;0.30;100.00
29315;BME280;16320;53.954;9.506;2024-01-06T05:16:32;100606.06;;;0.28;100.00
29315;BME280;16320;53.954;9.506;2024-01-06T05:19:01;100622.38;;;0.33;100.00
29315;BME280;16320;53.954;9.506;2024-01-06T05:21:29;100616.38;;;0.29;100.00
29315;BME280;16320;53.954;9.506;2024-01-06T05:23:59;100622.38;;;0.33;100.00
29315;BME280;16320;53.954;9.506;2024-01-06T05:26:27;100629.22;;;0.34;100.00
29315;BME280;16320;53.954;9.506;2024-01-06T05:28:58;100633.53;;;0.36;100.00
29315;BME280;16320;53.954;9.506;2024-01-06T05:31:25;100631.75;;;0.39;100.00
29315;BME280;16320;53.954;9.506;2024-01-06T05:33:54;100637.88;;;0.31;100.00
29315;BME280;16320;53.954;9.506;2024-01-06T05:36:23;100641.28;;;0.36;100.00
29315;BME280;16320;53.954;9.506;2024-01-06T05:38:52;100638.69;;;0.35;100.00
29315;BME280;16320;53.954;9.506;2024-01-06T05:41:23;100657.69;;;0.31;100.00
29315;BME280;16320;53.954;9.506;2024-01-06T05:43:53;100661.94;;;0.35;100.00
29315;BME280;16320;53.954;9.506;2024-01-06T05:46:25;100650.75;;;0.36;100.00
29315;BME280;16320;53.954;9.506;2024-01-06T05:48:54;100655.94;;;0.36;100.00
29315;BME280;16320;53.954;9.506;2024-01-06T05:51:23;100666.25;;;0.36;100.00
29315;BME280;16320;53.954;9.506;2024-01-06T05:53:51;100662.81;;;0.34;100.00
29315;BME280;16320;53.954;9.506;2024-01-06T05:56:26;100668.09;;;0.26;100.00
29315;BME280;16320;53.954;9.506;2024-01-06T05:58:57;100666.31;;;0.30;100.00
29315;BME280;16320;53.954;9.506;2024-01-06T06:01:26;100661.97;;;0.33;100.00
29315;BME280;16320;53.954;9.506;2024-01-06T06:03:56;100678.31;;;0.34;100.00
29315;BME280;16320;53.954;9.506;2024-01-06T06:06:30;100668.88;;;0.33;100.00
29315;BME280;16320;53.954;9.506;2024-01-06T06:09:00;100671.44;;;0.36;100.00
29315;BME280;16320;53.954;9.506;2024-01-06T06:11:33;100668.88;;;0.33;100.00
29315;BME280;16320;53.954;9.506;2024-01-06T06:14:01;100672.31;;;0.33;100.00
29315;BME280;16320;53.954;9.506;2024-01-06T06:16:30;100674.03;;;0.33;100.00
29315;BME280;16320;53.954;9.506;2024-01-06T06:18:58;100677.50;;;0.30;100.00
29315;BME280;16320;53.954;9.506;2024-01-06T06:21:27;100681.81;;;0.30;100.00
29315;BME280;16320;53.954;9.506;2024-01-06T06:23:55;100689.63;;;0.25;100.00
29315;BME280;16320;53.954;9.506;2024-01-06T06:26:25;100694.78;;;0.24;100.00
29315;BME280;16320;53.954;9.506;2024-01-06T06:28:54;100688.78;;;0.22;100.00
29315;BME280;16320;53.954;9.506;2024-01-06T06:31:22;100716.31;;;0.21;100.00
29315;BME280;16320;53.954;9.506;2024-01-06T06:33:50;100718.03;;;0.24;100.00
29315;BME280;16320;53.954;9.506;2024-01-06T06:36:18;100724.00;;;0.29;100.00
29315;BME280;16320;53.954;9.506;2024-01-06T06:38:46;100728.31;;;0.31;100.00
29315;BME280;16320;53.954;9.506;2024-01-06T06:41:14;100730.94;;;0.27;100.00
29315;BME280;16320;53.954;9.506;2024-01-06T06:43:42;100740.34;;;0.31;100.00
29315;BME280;16320;53.954;9.506;2024-01-06T06:46:11;100747.22;;;0.35;100.00
29315;BME280;16320;53.954;9.506;2024-01-06T06:48:41;100744.66;;;0.33;100.00
29315;BME280;16320;53.954;9.506;2024-01-06T06:51:09;100746.38;;;0.34;100.00
29315;BME280;16320;53.954;9.506;2024-01-06T06:53:41;100754.97;;;0.35;100.00
29315;BME280;16320;53.954;9.506;2024-01-06T06:56:09;100762.72;;;0.35;100.00
29315;BME280;16320;53.954;9.506;2024-01-06T06:58:37;100769.63;;;0.33;100.00
29315;BME280;16320;53.954;9.506;2024-01-06T07:01:05;100773.91;;;0.35;100.00
29315;BME280;16320;53.954;9.506;2024-01-06T07:03:36;100774.75;;;0.39;100.00
29315;BME280;16320;53.954;9.506;2024-01-06T07:06:04;100776.50;;;0.34;100.00
29315;BME280;16320;53.954;9.506;2024-01-06T07:08:32;100783.44;;;0.30;100.00
29315;BME280;16320;53.954;9.506;2024-01-06T07:11:00;100781.66;;;0.34;100.00
29315;BME280;16320;53.954;9.506;2024-01-06T07:13:28;100785.13;;;0.36;100.00
29315;BME280;16320;53.954;9.506;2024-01-06T07:15:56;100789.41;;;0.37;100.00
29315;BME280;16320;53.954;9.506;2024-01-06T07:18:43;100792.88;;;0.34;100.00
29315;BME280;16320;53.954;9.506;2024-01-06T07:21:12;100801.47;;;0.38;100.00
29315;BME280;16320;53.954;9.506;2024-01-06T07:23:41;100798.88;;;0.38;100.00
29315;BME280;16320;53.954;9.506;2024-01-06T07:26:10;100812.63;;;0.40;100.00
29315;BME280;16320;53.954;9.506;2024-01-06T07:28:38;100807.47;;;0.37;100.00
29315;BME280;16320;53.954;9.506;2024-01-06T07:31:06;100816.97;;;0.36;100.00
29315;BME280;16320;53.954;9.506;2024-01-06T07:33:35;100817.81;;;0.37;100.00
29315;BME280;16320;53.954;9.506;2024-01-06T07:36:06;100813.53;;;0.36;100.00
29315;BME280;16320;53.954;9.506;2024-01-06T07:38:34;100811.81;;;0.35;100.00
29315;BME280;16320;53.954;9.506;2024-01-06T07:41:03;100819.53;;;0.38;100.00
29315;BME280;16320;53.954;9.506;2024-01-06T07:43:32;100822.16;;;0.35;100.00
29315;BME280;16320;53.954;9.506;2024-01-06T07:46:00;100820.41;;;0.37;100.00
29315;BME280;16320;53.954;9.506;2024-01-06T07:48:30;100825.59;;;0.34;100.00
29315;BME280;16320;53.954;9.506;2024-01-06T07:51:01;100829.88;;;0.38;100.00
29315;BME280;16320;53.954;9.506;2024-01-06T07:53:30;100833.31;;;0.37;100.00
29315;BME280;16320;53.954;9.506;2024-01-06T07:55:58;100829.94;;;0.29;100.00
29315;BME280;16320;53.954;9.506;2024-01-06T07:58:26;100832.47;;;0.36;100.00
29315;BME280;16320;53.954;9.506;2024-01-06T08:00:55;100830.75;;;0.35;100.00
29315;BME280;16320;53.954;9.506;2024-01-06T08:03:23;100845.38;;;0.38;100.00
29315;BME280;16320;53.954;9.506;2024-01-06T08:05:54;100845.38;;;0.38;100.00
29315;BME280;16320;53.954;9.506;2024-01-06T08:08:23;100853.09;;;0.43;100.00
29315;BME280;16320;53.954;9.506;2024-01-06T08:10:51;100856.53;;;0.45;100.00
29315;BME280;16320;53.954;9.506;2024-01-06T08:13:19;100859.13;;;0.40;100.00
29315;BME280;16320;53.954;9.506;2024-01-06T08:15:47;100869.47;;;0.43;100.00
29315;BME280;16320;53.954;9.506;2024-01-06T08:18:19;100872.97;;;0.36;100.00
29315;BME280;16320;53.954;9.506;2024-01-06T08:20:50;100877.25;;;0.35;100.00
29315;BME280;16320;53.954;9.506;2024-01-06T08:23:19;100875.53;;;0.39;100.00
29315;BME280;16320;53.954;9.506;2024-01-06T08:25:48;100884.13;;;0.43;100.00
29315;BME280;16320;53.954;9.506;2024-01-06T08:28:16;100889.25;;;0.46;100.00
29315;BME280;16320;53.954;9.506;2024-01-06T08:30:45;100889.28;;;0.44;100.00
29315;BME280;16320;53.954;9.506;2024-01-06T08:33:13;100897.84;;;0.48;100.00
29315;BME280;16320;53.954;9.506;2024-01-06T08:35:41;100897.00;;;0.47;100.00
29315;BME280;16320;53.954;9.506;2024-01-06T08:38:09;100899.59;;;0.46;100.00
29315;BME280;16320;53.954;9.506;2024-01-06T08:40:37;100905.63;;;0.46;100.00
29315;BME280;16320;53.954;9.506;2024-01-06T08:43:06;100914.19;;;0.51;100.00
29315;BME280;16320;53.954;9.506;2024-01-06T08:45:34;100915.03;;;0.55;100.00
29315;BME280;16320;53.954;9.506;2024-01-06T08:48:02;100919.31;;;0.58;100.00
29315;BME280;16320;53.954;9.506;2024-01-06T08:50:31;100922.75;;;0.57;100.00
29315;BME280;16320;53.954;9.506;2024-01-06T08:52:59;100924.50;;;0.56;100.00
29315;BME280;16320;53.954;9.506;2024-01-06T08:55:27;100929.66;;;0.58;100.00
29315;BME280;16320;53.954;9.506;2024-01-06T08:57:55;100938.22;;;0.66;100.00
29315;BME280;16320;53.954;9.506;2024-01-06T09:00:23;100939.94;;;0.67;100.00
29315;BME280;16320;53.954;9.506;2024-01-06T09:02:51;100950.28;;;0.70;100.00
29315;BME280;16320;53.954;9.506;2024-01-06T09:05:20;100958.91;;;0.66;100.00
29315;BME280;16320;53.954;9.506;2024-01-06T09:07:49;100957.97;;;0.71;100.00
29315;BME280;16320;53.954;9.506;2024-01-06T09:10:20;100961.47;;;0.70;100.00
29315;BME280;16320;53.954;9.506;2024-01-06T09:12:50;100964.91;;;0.71;100.00
29315;BME280;16320;53.954;9.506;2024-01-06T09:15:18;100966.59;;;0.75;100.00
29315;BME280;16320;53.954;9.506;2024-01-06T09:17:46;100972.63;;;0.77;100.00
29315;BME280;16320;53.954;9.506;2024-01-06T09:20:15;100975.22;;;0.74;100.00
29315;BME280;16320;53.954;9.506;2024-01-06T09:22:44;100976.06;;;0.73;100.00
29315;BME280;16320;53.954;9.506;2024-01-06T09:25:12;100981.22;;;0.76;100.00
29315;BME280;16320;53.954;9.506;2024-01-06T09:27:40;100988.13;;;0.74;100.00
29315;BME280;16320;53.954;9.506;2024-01-06T09:30:09;100985.56;;;0.71;100.00
29315;BME280;16320;53.954;9.506;2024-01-06T09:32:38;100983.81;;;0.73;100.00
29315;BME280;16320;53.954;9.506;2024-01-06T09:35:07;100992.47;;;0.75;100.00
29315;BME280;16320;53.954;9.506;2024-01-06T09:37:36;101000.13;;;0.84;100.00
29315;BME280;16320;53.954;9.506;2024-01-06T09:40:04;100998.41;;;0.89;100.00
29315;BME280;16320;53.954;9.506;2024-01-06T09:42:33;101001.81;;;0.93;100.00
29315;BME280;16320;53.954;9.506;2024-01-06T09:45:01;101000.06;;;0.94;100.00
29315;BME280;16320;53.954;9.506;2024-01-06T09:47:34;100989.75;;;0.90;100.00
29315;BME280;16320;53.954;9.506;2024-01-06T09:50:03;100994.88;;;0.97;100.00
29315;BME280;16320;53.954;9.506;2024-01-06T09:52:41;101002.63;;;0.97;100.00
29315;BME280;16320;53.954;9.506;2024-01-06T09:55:11;101006.09;;;0.96;100.00
29315;BME280;16320;53.954;9.506;2024-01-06T09:57:45;100999.19;;;0.96;100.00
29315;BME280;16320;53.954;9.506;2024-01-06T10:00:14;101006.09;;;0.96;100.00
29315;BME280;16320;53.954;9.506;2024-01-06T10:02:43;101004.41;;;0.93;100.00
29315;BME280;16320;53.954;9.506;2024-01-06T10:05:13;101005.22;;;0.97;100.00
29315;BME280;16320;53.954;9.506;2024-01-06T10:07:45;101011.25;;;0.94;100.00
29315;BME280;16320;53.954;9.506;2024-01-06T10:10:14;101011.31;;;0.91;100.00
29315;BME280;16320;53.954;9.506;2024-01-06T10:12:43;101008.75;;;0.89;100.00
29315;BME280;16320;53.954;9.506;2024-01-06T10:15:11;101011.31;;;0.91;100.00
29315;BME280;16320;53.954;9.506;2024-01-06T10:17:41;101019.94;;;0.88;100.00
29315;BME280;16320;53.954;9.506;2024-01-06T10:20:12;101022.50;;;0.91;100.00
29315;BME280;16320;53.954;9.506;2024-01-06T10:22:42;101016.44;;;0.94;100.00
29315;BME280;16320;53.954;9.506;2024-01-06T10:25:12;101025.94;;;0.90;100.00
29315;BME280;16320;53.954;9.506;2024-01-06T10:27:41;101022.47;;;0.96;100.00
29315;BME280;16320;53.954;9.506;2024-01-06T10:30:12;101032.81;;;0.98;100.00
29315;BME280;16320;53.954;9.506;2024-01-06T10:32:45;101023.34;;;0.95;100.00
29315;BME280;16320;53.954;9.506;2024-01-06T10:35:13;101033.72;;;0.89;100.00
29315;BME280;16320;53.954;9.506;2024-01-06T10:37:42;101038.91;;;0.89;100.00
29315;BME280;16320;53.954;9.506;2024-01-06T10:40:13;101039.72;;;0.96;100.00
29315;BME280;16320;53.954;9.506;2024-01-06T10:42:44;101036.34;;;0.84;100.00
29315;BME280;16320;53.954;9.506;2024-01-06T10:45:14;101045.00;;;0.77;100.00
29315;BME280;16320;53.954;9.506;2024-01-06T10:47:43;101040.72;;;0.73;100.00
29315;BME280;16320;53.954;9.506;2024-01-06T10:50:11;101037.38;;;0.59;100.00
29315;BME280;16320;53.954;9.506;2024-01-06T10:52:41;101047.63;;;0.68;100.00
29315;BME280;16320;53.954;9.506;2024-01-06T10:55:11;101042.47;;;0.68;100.00
29315;BME280;16320;53.954;9.506;2024-01-06T10:57:43;101049.38;;;0.70;100.00
29315;BME280;16320;53.954;9.506;2024-01-06T11:00:13;101052.78;;;0.76;100.00
29315;BME280;16320;53.954;9.506;2024-01-06T11:02:41;101058.00;;;0.63;100.00
29315;BME280;16320;53.954;9.506;2024-01-06T11:05:09;101055.38;;;0.69;100.00
29315;BME280;16320;53.954;9.506;2024-01-06T11:07:39;101059.72;;;0.70;100.00
29315;BME280;16320;53.954;9.506;2024-01-06T11:10:16;101059.69;;;0.73;100.00
29315;BME280;16320;53.954;9.506;2024-01-06T11:12:45;101068.28;;;0.77;100.00
29315;BME280;16320;53.954;9.506;2024-01-06T11:15:47;101067.47;;;0.72;100.00
29315;BME280;16320;53.954;9.506;2024-01-06T11:18:38;101064.84;;;0.77;100.00
29315;BME280;16320;53.954;9.506;2024-01-06T11:21:17;101073.44;;;0.79;100.00
29315;BME280;16320;53.954;9.506;2024-01-06T11:24:24;101076.00;;;0.85;100.00
29315;BME280;16320;53.954;9.506;2024-01-06T11:26:56;101076.03;;;0.80;100.00
29315;BME280;16320;53.954;9.506;2024-01-06T11:29:25;101078.59;;;0.86;100.00
29315;BME280;16320;53.954;9.506;2024-01-06T11:32:30;101075.09;;;0.89;100.00
29315;BME280;16320;53.954;9.506;2024-01-06T11:35:12;101065.66;;;0.85;100.00
29315;BME280;16320;53.954;9.506;2024-01-06T11:40:10;101088.06;;;0.81;100.00
29315;BME280;16320;53.954;9.506;2024-01-06T11:42:46;101076.88;;;0.78;100.00
29315;BME280;16320;53.954;9.506;2024-01-06T11:45:14;101076.91;;;0.73;100.00
29315;BME280;16320;53.954;9.506;2024-01-06T11:47:48;101077.78;;;0.78;100.00
29315;BME280;16320;53.954;9.506;2024-01-06T11:50:17;101083.78;;;0.83;100.00
29315;BME280;16320;53.954;9.506;2024-01-06T11:52:45;101078.59;;;0.85;100.00
29315;BME280;16320;53.954;9.506;2024-01-06T11:55:14;101089.78;;;0.88;100.00
29315;BME280;16320;53.954;9.506;2024-01-06T11:57:45;101083.75;;;0.89;100.00
29315;BME280;16320;53.954;9.506;2024-01-06T12:00:14;101086.31;;;0.89;100.00
29315;BME280;16320;53.954;9.506;2024-01-06T12:02:43;101079.41;;;0.90;100.00
29315;BME280;16320;53.954;9.506;2024-01-06T12:05:16;101101.75;;;1.02;100.00
29315;BME280;16320;53.954;9.506;2024-01-06T12:07:56;101086.19;;;1.08;100.00
29315;BME280;16320;53.954;9.506;2024-01-06T12:10:28;101092.25;;;1.05;100.00
29315;BME280;16320;53.954;9.506;2024-01-06T12:13:02;101092.22;;;1.07;100.00
29315;BME280;16320;53.954;9.506;2024-01-06T12:15:31;101088.84;;;0.99;100.00
29315;BME280;16320;53.954;9.506;2024-01-06T12:18:03;101086.22;;;1.02;100.00
29315;BME280;16320;53.954;9.506;2024-01-06T12:20:31;101087.13;;;0.98;100.00
29315;BME280;16320;53.954;9.506;2024-01-06T12:23:00;101087.16;;;0.91;100.00
29315;BME280;16320;53.954;9.506;2024-01-06T12:25:30;101086.31;;;0.89;100.00
29315;BME280;16320;53.954;9.506;2024-01-06T12:28:05;101096.69;;;0.89;100.00
29315;BME280;16320;53.954;9.506;2024-01-06T12:30:34;101098.38;;;0.90;100.00
29315;BME280;16320;53.954;9.506;2024-01-06T12:33:04;101098.38;;;0.89;100.00
29315;BME280;16320;53.954;9.506;2024-01-06T12:35:32;101097.50;;;0.91;100.00
29315;BME280;16320;53.954;9.506;2024-01-06T12:38:03;101098.34;;;0.97;100.00
29315;BME280;16320;53.954;9.506;2024-01-06T12:40:36;101098.31;;;1.00;100.00
29315;BME280;16320;53.954;9.506;2024-01-06T12:43:08;101112.13;;;0.99;100.00
29315;BME280;16320;53.954;9.506;2024-01-06T12:45:37;101117.31;;;0.96;100.00
29315;BME280;16320;53.954;9.506;2024-01-06T12:48:05;101115.63;;;0.91;100.00
29315;BME280;16320;53.954;9.506;2024-01-06T12:50:33;101119.06;;;0.94;100.00
29315;BME280;16320;53.954;9.506;2024-01-06T12:53:02;101113.03;;;0.91;100.00
29315;BME280;16320;53.954;9.506;2024-01-06T12:55:33;101122.56;;;0.83;100.00
29315;BME280;16320;53.954;9.506;2024-01-06T12:58:02;101118.28;;;0.76;100.00
29315;BME280;16320;53.954;9.506;2024-01-06T13:00:31;101125.19;;;0.72;100.00
29315;BME280;16320;53.954;9.506;2024-01-06T13:03:03;101145.88;;;0.76;100.00
29315;BME280;16320;53.954;9.506;2024-01-06T13:05:31;101144.97;;;0.81;100.00